createdAt,value
2019-05-26T00:01:28.827Z,7.47
2019-05-26T00:04:03.855Z,9.60
2019-05-26T00:06:36.959Z,11.60
2019-05-26T00:09:14.913Z,7.90
2019-05-26T00:11:47.690Z,7.47
2019-05-26T00:14:22.778Z,10.30
2019-05-26T00:16:58.007Z,7.23
2019-05-26T00:19:36.593Z,8.87
2019-05-26T00:22:06.869Z,9.30
2019-05-26T00:24:38.388Z,7.30
2019-05-26T00:27:12.994Z,6.93
2019-05-26T00:29:45.819Z,9.67
2019-05-26T00:32:21.248Z,8.27
2019-05-26T00:34:53.883Z,9.20
2019-05-26T00:37:25.678Z,10.30
2019-05-26T00:39:57.422Z,11.13
2019-05-26T00:42:28.440Z,7.13
2019-05-26T00:45:06.520Z,10.03
2019-05-26T00:47:38.553Z,6.47
2019-05-26T00:50:12.988Z,7.43
2019-05-26T00:53:00.253Z,9.03
2019-05-26T00:56:35.729Z,6.93
2019-05-26T00:58:09.374Z,8.87
2019-05-26T01:00:46.353Z,8.60
2019-05-26T01:03:20.358Z,9.40
2019-05-26T01:05:49.811Z,7.07
2019-05-26T01:08:26.406Z,8.00
2019-05-26T01:11:01.285Z,6.60
2019-05-26T01:13:29.664Z,10.47
2019-05-26T01:16:01.731Z,7.53
2019-05-26T01:18:34.745Z,6.23
2019-05-26T01:21:07.399Z,9.17
2019-05-26T01:23:44.206Z,9.60
2019-05-26T01:26:15.515Z,6.67
2019-05-26T01:28:48.959Z,6.70
2019-05-26T01:31:23.235Z,7.20
2019-05-26T01:33:56.130Z,13.10
2019-05-26T01:36:27.760Z,7.03
2019-05-26T01:39:01.431Z,8.17
2019-05-26T01:41:33.688Z,7.70
2019-05-26T01:44:10.890Z,6.17
2019-05-26T01:46:49.694Z,7.03
2019-05-26T01:49:27.380Z,8.93
2019-05-26T01:52:00.666Z,8.10
2019-05-26T01:54:35.083Z,7.80
2019-05-26T01:57:08.566Z,7.07
2019-05-26T01:59:44.800Z,7.43
2019-05-26T02:02:17.029Z,9.80
2019-05-26T02:04:53.308Z,6.47
2019-05-26T02:07:26.772Z,8.37
2019-05-26T02:09:59.519Z,8.83
2019-05-26T02:12:31.654Z,9.07
2019-05-26T02:15:06.842Z,8.50
2019-05-26T02:17:47.593Z,9.53
2019-05-26T02:20:24.279Z,10.03
2019-05-26T02:22:55.300Z,7.50
2019-05-26T02:25:27.188Z,8.87
2019-05-26T02:27:59.661Z,7.77
2019-05-26T02:30:29.821Z,10.07
2019-05-26T02:32:59.078Z,9.30
2019-05-26T02:35:29.352Z,8.73
2019-05-26T02:37:59.994Z,8.50
2019-05-26T02:40:30.654Z,8.37
2019-05-26T02:43:04.487Z,8.70
2019-05-26T02:45:38.410Z,9.70
2019-05-26T02:48:17.837Z,9.57
2019-05-26T02:50:56.475Z,11.30
2019-05-26T02:53:27.395Z,10.07
2019-05-26T02:55:59.008Z,8.60
2019-05-26T02:58:34.796Z,8.30
2019-05-26T03:01:04.179Z,10.93
2019-05-26T03:03:34.238Z,9.83
2019-05-26T03:06:08.799Z,10.70
2019-05-26T03:08:39.653Z,11.53
2019-05-26T03:11:10.542Z,12.03
2019-05-26T03:13:40.805Z,9.87
2019-05-26T03:16:12.186Z,10.63
2019-05-26T03:18:42.824Z,11.27
2019-05-26T03:21:14.331Z,11.10
2019-05-26T03:23:45.538Z,16.07
2019-05-26T03:26:17.659Z,13.50
2019-05-26T03:28:46.577Z,13.00
2019-05-26T03:31:17.350Z,12.37
2019-05-26T03:33:47.772Z,12.90
2019-05-26T03:36:19.297Z,13.40
2019-05-26T03:38:48.152Z,12.50
2019-05-26T03:41:17.015Z,13.37
2019-05-26T03:43:46.261Z,12.97
2019-05-26T03:46:17.333Z,14.53
2019-05-26T03:48:46.529Z,14.53
2019-05-26T03:51:15.844Z,13.27
2019-05-26T03:53:44.746Z,13.90
2019-05-26T03:56:13.687Z,12.67
2019-05-26T03:58:42.711Z,16.63
2019-05-26T04:01:13.561Z,14.73
2019-05-26T04:03:44.544Z,15.30
2019-05-26T04:06:14.293Z,16.60
2019-05-26T04:08:47.399Z,16.40
2019-05-26T04:11:22.813Z,17.37
2019-05-26T04:13:52.684Z,16.07
2019-05-26T04:16:22.360Z,15.83
2019-05-26T04:18:52.184Z,18.73
2019-05-26T04:21:24.322Z,18.37
2019-05-26T04:23:54.022Z,17.13
2019-05-26T04:26:23.091Z,17.67
2019-05-26T04:28:51.972Z,17.43
2019-05-26T04:31:22.223Z,18.83
2019-05-26T04:33:52.496Z,17.90
2019-05-26T04:36:21.384Z,18.07
2019-05-26T04:38:50.814Z,18.37
2019-05-26T04:41:19.861Z,18.20
2019-05-26T04:43:51.150Z,18.80
2019-05-26T04:46:20.870Z,19.97
2019-05-26T04:48:51.124Z,16.47
2019-05-26T04:51:20.038Z,20.27
2019-05-26T04:53:48.931Z,19.93
2019-05-26T04:56:20.117Z,20.83
2019-05-26T04:58:58.256Z,20.30
2019-05-26T05:01:31.640Z,18.10
2019-05-26T05:04:07.574Z,18.23
2019-05-26T05:06:43.923Z,16.33
2019-05-26T05:09:23.936Z,17.13
2019-05-26T05:11:53.409Z,14.37
2019-05-26T05:14:29.997Z,15.47
2019-05-26T05:17:04.323Z,15.60
2019-05-26T05:19:36.252Z,16.23
2019-05-26T05:22:10.296Z,18.70
2019-05-26T05:24:42.770Z,15.50
2019-05-26T05:27:14.339Z,16.87
2019-05-26T05:29:47.069Z,13.23
2019-05-26T05:32:19.494Z,13.47
2019-05-26T05:34:55.183Z,13.50
2019-05-26T05:37:28.930Z,12.70
2019-05-26T05:40:00.195Z,13.77
2019-05-26T05:42:33.683Z,14.03
2019-05-26T05:45:06.232Z,12.97
2019-05-26T05:47:39.780Z,15.23
2019-05-26T05:50:13.642Z,15.07
2019-05-26T05:52:45.750Z,12.50
2019-05-26T05:55:17.409Z,12.17
2019-05-26T05:57:51.250Z,11.67
2019-05-26T06:00:27.324Z,11.73
2019-05-26T06:03:07.372Z,11.97
2019-05-26T06:05:39.412Z,10.83
2019-05-26T06:08:09.519Z,9.67
2019-05-26T06:10:40.415Z,9.33
2019-05-26T06:13:16.335Z,8.60
2019-05-26T06:15:55.381Z,9.03
2019-05-26T06:18:27.527Z,9.90
2019-05-26T06:21:00.819Z,8.60
2019-05-26T06:23:42.247Z,9.60
2019-05-26T06:26:14.616Z,9.03
2019-05-26T06:28:45.071Z,10.33
2019-05-26T06:31:20.831Z,9.17
2019-05-26T06:33:53.947Z,8.77
2019-05-26T06:36:26.587Z,8.17
2019-05-26T06:39:03.118Z,8.97
2019-05-26T06:41:36.251Z,8.47
2019-05-26T06:44:07.451Z,9.33
2019-05-26T06:46:39.066Z,8.60
2019-05-26T06:49:20.708Z,9.03
2019-05-26T06:51:49.353Z,10.37
2019-05-26T06:54:21.755Z,9.27
2019-05-26T06:56:55.133Z,7.60
2019-05-26T06:59:27.102Z,8.63
2019-05-26T07:01:58.715Z,8.97
2019-05-26T07:04:39.623Z,11.90
2019-05-26T07:07:11.329Z,8.63
2019-05-26T07:09:46.780Z,8.80
2019-05-26T07:12:20.403Z,8.30
2019-05-26T07:14:57.254Z,8.47
2019-05-26T07:17:29.640Z,9.97
2019-05-26T07:20:01.182Z,9.87
2019-05-26T07:22:37.225Z,9.93
2019-05-26T07:25:15.341Z,10.17
2019-05-26T07:27:49.203Z,10.13
2019-05-26T07:30:26.511Z,11.53
2019-05-26T07:33:14.562Z,11.70
2019-05-26T07:35:45.681Z,8.63
2019-05-26T07:38:15.534Z,9.07
2019-05-26T07:40:47.686Z,10.10
2019-05-26T07:43:21.516Z,10.27
2019-05-26T07:45:52.525Z,9.93
2019-05-26T07:48:30.171Z,7.07
2019-05-26T07:51:06.550Z,6.03
2019-05-26T07:53:49.164Z,5.70
2019-05-26T07:56:20.560Z,5.87
2019-05-26T07:58:52.751Z,4.53
2019-05-26T08:01:35.785Z,5.30
2019-05-26T08:04:00.970Z,4.40
2019-05-26T08:06:32.332Z,3.90
2019-05-26T08:09:02.188Z,5.30
2019-05-26T08:11:33.469Z,4.50
2019-05-26T08:14:04.043Z,3.40
2019-05-26T08:16:34.513Z,4.50
2019-05-26T08:19:06.904Z,4.40
2019-05-26T08:21:44.244Z,3.93
2019-05-26T08:24:22.185Z,5.77
2019-05-26T08:26:57.350Z,5.10
2019-05-26T08:29:30.078Z,4.70
2019-05-26T08:32:01.446Z,3.07
2019-05-26T08:34:35.282Z,4.20
2019-05-26T08:37:04.886Z,3.37
2019-05-26T08:39:39.761Z,3.83
2019-05-26T08:42:26.763Z,3.47
2019-05-26T08:44:52.507Z,4.20
2019-05-26T08:47:28.118Z,3.57
2019-05-26T08:49:58.984Z,3.40
2019-05-26T08:52:29.354Z,3.00
2019-05-26T08:54:59.425Z,2.50
2019-05-26T08:58:02.151Z,4.30
2019-05-26T09:00:05.382Z,2.77
2019-05-26T09:02:38.695Z,3.37
2019-05-26T09:05:11.406Z,3.30
2019-05-26T09:07:45.858Z,2.80
2019-05-26T09:10:22.616Z,3.93
2019-05-26T09:13:01.261Z,2.63
2019-05-26T09:15:31.884Z,2.30
2019-05-26T09:18:02.907Z,3.93
2019-05-26T09:20:35.096Z,4.60
2019-05-26T09:23:08.758Z,3.43
2019-05-26T09:25:38.172Z,2.40
2019-05-26T09:28:07.698Z,3.93
2019-05-26T09:30:36.549Z,3.67
2019-05-26T09:33:05.419Z,3.93
2019-05-26T09:35:37.250Z,2.40
2019-05-26T09:38:10.696Z,2.77
2019-05-26T09:40:46.138Z,3.20
2019-05-26T09:43:19.074Z,1.93
2019-05-26T09:45:50.480Z,3.67
2019-05-26T09:48:26.501Z,2.77
2019-05-26T09:50:57.789Z,3.37
2019-05-26T09:53:31.455Z,2.07
2019-05-26T09:56:04.430Z,3.20
2019-05-26T09:58:34.433Z,2.20
2019-05-26T10:01:04.920Z,1.60
2019-05-26T10:03:40.603Z,2.37
2019-05-26T10:06:19.336Z,1.43
2019-05-26T10:08:42.076Z,2.83
2019-05-26T10:11:12.174Z,3.57
2019-05-26T10:13:46.315Z,1.67
2019-05-26T10:16:19.145Z,1.77
2019-05-26T10:18:47.918Z,1.50
2019-05-26T10:21:27.402Z,1.63
2019-05-26T10:24:05.698Z,1.93
2019-05-26T10:26:36.683Z,1.57
2019-05-26T10:29:09.159Z,1.70
2019-05-26T10:31:39.873Z,1.60
2019-05-26T10:34:13.703Z,1.40
2019-05-26T10:36:51.285Z,1.50
2019-05-26T10:39:23.334Z,1.13
2019-05-26T10:41:56.375Z,1.57
2019-05-26T10:44:33.759Z,2.13
2019-05-26T10:47:09.130Z,2.77
2019-05-26T10:49:48.904Z,2.30
2019-05-26T10:52:27.168Z,2.03
2019-05-26T10:55:01.852Z,1.73
2019-05-26T10:57:34.423Z,2.23
2019-05-26T11:00:09.487Z,1.43
2019-05-26T11:02:39.006Z,2.00
2019-05-26T11:05:15.227Z,1.60
2019-05-26T11:07:50.863Z,3.40
2019-05-26T11:10:27.159Z,2.03
2019-05-26T11:13:09.520Z,1.70
2019-05-26T11:15:42.582Z,1.53
2019-05-26T11:18:18.544Z,1.40
2019-05-26T11:20:53.705Z,1.50
2019-05-26T11:23:22.685Z,2.17
2019-05-26T11:25:54.050Z,2.57
2019-05-26T11:28:26.580Z,1.50
2019-05-26T11:31:07.391Z,1.50
2019-05-26T11:33:40.105Z,1.63
2019-05-26T11:36:14.165Z,2.13
2019-05-26T11:38:52.355Z,1.37
2019-05-26T11:41:15.433Z,1.50
2019-05-26T11:43:45.810Z,1.90
2019-05-26T11:46:16.728Z,1.73
2019-05-26T11:48:47.318Z,1.60
2019-05-26T11:51:23.452Z,1.53
2019-05-26T11:54:08.451Z,2.07
2019-05-26T11:56:37.501Z,2.47
2019-05-26T11:59:18.490Z,1.67
2019-05-26T12:01:51.995Z,1.67
2019-05-26T12:04:23.451Z,2.27
2019-05-26T12:06:55.238Z,1.87
2019-05-26T12:09:24.408Z,1.10
2019-05-26T12:11:54.293Z,2.10
2019-05-26T12:14:34.634Z,1.43
2019-05-26T12:16:57.790Z,2.07
2019-05-26T12:19:28.548Z,1.67
2019-05-26T12:21:59.167Z,2.37
2019-05-26T12:24:31.616Z,1.40
2019-05-26T12:27:04.863Z,1.23
2019-05-26T12:29:43.763Z,0.93
2019-05-26T12:32:17.290Z,0.97
2019-05-26T12:34:54.634Z,1.53
2019-05-26T12:37:26.634Z,2.00
2019-05-26T12:40:00.327Z,1.33
2019-05-26T12:42:31.651Z,1.63
2019-05-26T12:45:06.139Z,1.20
2019-05-26T12:47:47.871Z,1.53
2019-05-26T12:50:19.792Z,1.30
2019-05-26T12:52:48.816Z,1.77
2019-05-26T12:55:20.829Z,1.60
2019-05-26T12:57:55.166Z,1.30
2019-05-26T13:00:25.002Z,1.37
2019-05-26T13:02:55.712Z,2.87
2019-05-26T13:05:25.092Z,1.43
2019-05-26T13:07:56.231Z,1.90
2019-05-26T13:10:33.466Z,1.80
2019-05-26T13:13:08.922Z,1.67
2019-05-26T13:15:40.749Z,1.87
2019-05-26T13:18:12.909Z,1.50
2019-05-26T13:20:44.961Z,1.63
2019-05-26T13:23:13.839Z,2.50
2019-05-26T13:25:45.557Z,2.43
2019-05-26T13:28:21.179Z,1.40
2019-05-26T13:30:50.424Z,2.17
2019-05-26T13:33:19.687Z,1.50
2019-05-26T13:35:51.668Z,2.90
2019-05-26T13:38:23.288Z,1.90
2019-05-26T13:40:56.117Z,1.83
2019-05-26T13:43:26.015Z,1.50
2019-05-26T13:45:59.880Z,1.73
2019-05-26T13:48:28.747Z,1.70
2019-05-26T13:51:02.610Z,2.50
2019-05-26T13:53:34.307Z,3.77
2019-05-26T13:56:06.308Z,2.17
2019-05-26T13:58:37.271Z,2.53
2019-05-26T14:01:14.230Z,2.30
2019-05-26T14:03:47.208Z,1.60
2019-05-26T14:06:17.705Z,2.13
2019-05-26T14:08:47.790Z,2.73
2019-05-26T14:11:27.592Z,2.70
2019-05-26T14:14:23.144Z,2.23
2019-05-26T14:16:58.151Z,2.77
2019-05-26T14:19:44.502Z,2.10
2019-05-26T14:22:52.773Z,1.90
2019-05-26T14:24:54.466Z,1.97
2019-05-26T14:27:46.832Z,2.43
2019-05-26T14:30:26.911Z,1.87
2019-05-26T14:32:58.728Z,1.83
2019-05-26T14:35:44.679Z,2.17
2019-05-26T14:38:42.338Z,2.17
2019-05-26T14:41:01.277Z,2.57
2019-05-26T14:43:45.143Z,1.73
2019-05-26T14:46:17.139Z,3.20
2019-05-26T14:49:00.704Z,2.13
2019-05-26T14:51:36.213Z,2.23
2019-05-26T14:54:12.442Z,2.63
2019-05-26T14:56:59.175Z,2.70
2019-05-26T14:59:30.522Z,2.60
2019-05-26T15:02:07.267Z,2.70
2019-05-26T15:04:43.197Z,2.60
2019-05-26T15:07:13.630Z,2.90
2019-05-26T15:09:47.474Z,2.20
2019-05-26T15:12:24.022Z,2.80
2019-05-26T15:14:55.918Z,1.93
2019-05-26T15:17:26.939Z,1.80
2019-05-26T15:20:01.793Z,2.50
2019-05-26T15:22:35.596Z,3.07
2019-05-26T15:25:10.305Z,1.70
2019-05-26T15:27:40.911Z,2.67
2019-05-26T15:30:13.680Z,2.53
2019-05-26T15:32:46.086Z,2.17
2019-05-26T15:35:15.129Z,2.50
2019-05-26T15:38:07.404Z,3.20
2019-05-26T15:40:22.448Z,3.30
2019-05-26T15:42:56.905Z,3.53
2019-05-26T15:45:39.083Z,2.40
2019-05-26T15:48:15.061Z,3.80
2019-05-26T15:50:44.957Z,2.70
2019-05-26T15:53:20.264Z,3.03
2019-05-26T15:55:55.286Z,2.50
2019-05-26T15:58:32.301Z,3.33
2019-05-26T16:01:12.139Z,1.93
2019-05-26T16:03:49.242Z,2.03
2019-05-26T16:06:25.410Z,1.97
2019-05-26T16:08:55.952Z,1.83
2019-05-26T16:11:29.306Z,2.73
2019-05-26T16:14:00.469Z,2.13
2019-05-26T16:16:40.814Z,2.53
2019-05-26T16:19:14.688Z,2.10
2019-05-26T16:24:50.479Z,3.53
2019-05-26T16:27:27.036Z,4.57
2019-05-26T16:30:03.833Z,1.87
2019-05-26T16:32:36.333Z,1.70
2019-05-26T16:35:17.376Z,1.93
2019-05-26T16:37:53.150Z,3.33
2019-05-26T16:40:23.561Z,2.37
2019-05-26T16:43:05.613Z,2.47
2019-05-26T16:45:38.154Z,2.40
2019-05-26T16:48:25.072Z,3.13
2019-05-26T16:50:56.247Z,1.70
2019-05-26T16:53:37.997Z,4.70
2019-05-26T16:56:06.356Z,3.03
2019-05-26T16:58:44.108Z,2.93
2019-05-26T17:01:15.922Z,1.90
2019-05-26T17:03:54.429Z,3.20
2019-05-26T17:06:27.750Z,2.73
2019-05-26T17:09:06.600Z,2.13
2019-05-26T17:11:46.492Z,2.30
2019-05-26T17:14:25.385Z,7.93
2019-05-26T17:17:14.312Z,2.10
2019-05-26T17:19:43.974Z,2.07
2019-05-26T17:22:21.499Z,1.70
2019-05-26T17:24:59.936Z,4.63
2019-05-26T17:27:38.673Z,3.33
2019-05-26T17:30:21.811Z,2.17
2019-05-26T17:32:53.399Z,4.47
2019-05-26T17:35:37.894Z,1.90
2019-05-26T17:38:22.980Z,2.17
2019-05-26T17:41:04.515Z,4.23
2019-05-26T17:43:40.127Z,3.10
2019-05-26T17:46:23.724Z,5.13
2019-05-26T17:49:24.124Z,2.47
2019-05-26T17:52:20.983Z,3.13
2019-05-26T17:54:54.452Z,1.90
2019-05-26T18:00:26.265Z,1.80
2019-05-26T18:03:01.543Z,2.37
2019-05-26T18:05:28.585Z,1.73
2019-05-26T18:08:00.781Z,2.00
2019-05-26T18:10:38.027Z,3.20
2019-05-26T18:13:07.239Z,3.60
2019-05-26T18:15:43.324Z,3.47
2019-05-26T18:18:20.946Z,4.10
2019-05-26T18:20:58.889Z,1.60
2019-05-26T18:23:28.812Z,1.60
2019-05-26T18:26:09.490Z,2.10
2019-05-26T18:28:53.888Z,2.27
2019-05-26T18:31:36.732Z,2.83
2019-05-26T18:34:08.962Z,3.20
2019-05-26T18:36:40.842Z,3.20
2019-05-26T18:39:15.419Z,2.07
2019-05-26T18:41:53.609Z,3.23
2019-05-26T18:44:23.706Z,2.37
2019-05-26T18:47:00.620Z,4.60
2019-05-26T18:49:33.423Z,2.23
2019-05-26T18:52:11.832Z,3.20
2019-05-26T18:54:46.154Z,2.33
2019-05-26T18:57:24.463Z,2.83
2019-05-26T18:59:54.096Z,3.17
2019-05-26T19:02:35.219Z,2.60
2019-05-26T19:05:12.954Z,1.63
2019-05-26T19:08:02.961Z,2.17
2019-05-26T19:10:36.173Z,2.07
2019-05-26T19:13:11.879Z,2.20
2019-05-26T19:15:46.503Z,2.20
2019-05-26T19:18:21.656Z,3.33
2019-05-26T19:20:55.536Z,3.30
2019-05-26T19:23:31.747Z,2.20
2019-05-26T19:26:10.620Z,2.00
2019-05-26T19:28:41.552Z,2.20
2019-05-26T19:31:18.046Z,2.47
2019-05-26T19:33:58.059Z,3.20
2019-05-26T19:36:32.763Z,3.20
2019-05-26T19:39:11.122Z,2.97
2019-05-26T19:41:47.815Z,2.50
2019-05-26T19:44:23.395Z,2.27
2019-05-26T19:49:49.721Z,2.30
2019-05-26T19:52:20.139Z,3.30
2019-05-26T19:54:56.309Z,3.37
2019-05-26T19:57:26.336Z,2.40
2019-05-26T20:02:55.426Z,2.57
2019-05-26T20:05:36.928Z,2.17
2019-05-26T20:08:19.459Z,2.37
2019-05-26T20:10:58.946Z,2.67
2019-05-26T20:13:36.010Z,3.20
2019-05-26T20:16:30.858Z,2.77
2019-05-26T20:19:03.609Z,3.03
2019-05-26T20:21:39.140Z,3.37
2019-05-26T20:24:21.748Z,3.00
2019-05-26T20:27:01.877Z,2.20
2019-05-26T20:32:31.834Z,2.80
2019-05-26T20:35:14.421Z,2.57
2019-05-26T20:37:50.383Z,2.37
2019-05-26T20:40:27.973Z,3.20
2019-05-26T20:43:02.010Z,3.03
2019-05-26T20:45:40.335Z,4.23
2019-05-26T20:48:27.832Z,2.53
2019-05-26T20:51:02.489Z,4.87
2019-05-26T20:53:44.518Z,2.60
2019-05-26T20:56:39.253Z,2.37
2019-05-26T20:59:00.217Z,2.60
2019-05-26T21:01:37.652Z,2.60
2019-05-26T21:04:22.220Z,4.93
2019-05-26T21:06:53.252Z,3.43
2019-05-26T21:09:29.332Z,2.37
2019-05-26T21:12:05.305Z,2.40
2019-05-26T21:14:39.930Z,2.50
2019-05-26T21:17:13.573Z,2.87
2019-05-26T21:19:56.751Z,4.50
2019-05-26T21:22:30.823Z,2.87
2019-05-26T21:25:10.390Z,3.40
2019-05-26T21:27:41.121Z,4.37
2019-05-26T21:30:13.302Z,3.90
2019-05-26T21:32:47.595Z,3.57
2019-05-26T21:35:19.744Z,4.13
2019-05-26T21:37:55.070Z,3.70
2019-05-26T21:40:33.034Z,4.57
2019-05-26T21:43:06.946Z,6.93
2019-05-26T21:45:39.728Z,3.20
2019-05-26T21:48:14.316Z,5.70
2019-05-26T21:50:54.071Z,6.90
2019-05-26T21:53:31.815Z,3.47
2019-05-26T21:56:07.710Z,5.20
2019-05-26T21:58:53.789Z,4.13
2019-05-26T22:01:16.227Z,3.87
2019-05-26T22:03:57.393Z,4.13
2019-05-26T22:06:28.523Z,5.63
2019-05-26T22:09:08.024Z,5.30
2019-05-26T22:11:45.207Z,4.97
2019-05-26T22:14:19.656Z,7.03
2019-05-26T22:16:56.888Z,5.57
2019-05-26T22:19:31.011Z,3.93
2019-05-26T22:22:03.808Z,5.37
2019-05-26T22:24:37.816Z,6.07
2019-05-26T22:27:10.255Z,4.00
2019-05-26T22:29:42.405Z,4.93
2019-05-26T22:32:17.220Z,7.57
2019-05-26T22:34:48.723Z,5.13
2019-05-26T22:37:21.696Z,6.37
2019-05-26T22:39:59.600Z,6.57
2019-05-26T22:42:32.278Z,6.13
2019-05-26T22:45:19.030Z,6.03
2019-05-26T22:47:58.353Z,7.13
2019-05-26T22:50:29.499Z,6.27
2019-05-26T22:53:08.111Z,5.33
2019-05-26T22:55:47.755Z,8.17
2019-05-26T22:58:35.649Z,5.10
2019-05-26T23:01:11.279Z,6.37
2019-05-26T23:03:49.914Z,6.90
2019-05-26T23:06:29.893Z,5.47
2019-05-26T23:09:04.413Z,6.97
2019-05-26T23:11:40.124Z,5.77
2019-05-26T23:14:19.813Z,5.63
2019-05-26T23:16:57.271Z,7.20
2019-05-26T23:19:27.643Z,8.23
2019-05-26T23:22:03.607Z,7.47
2019-05-26T23:24:39.127Z,7.57
2019-05-26T23:27:25.125Z,6.40
2019-05-26T23:29:58.496Z,5.37
2019-05-26T23:32:40.689Z,4.87
2019-05-26T23:35:21.866Z,6.17
2019-05-26T23:38:01.117Z,4.37
2019-05-26T23:40:42.853Z,6.07
2019-05-26T23:43:24.768Z,4.20
2019-05-26T23:46:01.590Z,4.40
2019-05-26T23:48:43.204Z,6.47
2019-05-26T23:51:17.822Z,5.93
2019-05-26T23:53:53.148Z,7.77
2019-05-26T23:56:32.030Z,3.67
2019-05-26T23:59:06.272Z,8.00
